createdAt,value
2019-05-05T00:04:17.577Z,8.80
2019-05-05T00:09:19.421Z,11.83
2019-05-05T00:14:31.281Z,10.50
2019-05-05T00:19:34.034Z,9.93
2019-05-05T00:24:36.527Z,9.20
2019-05-05T00:29:38.337Z,7.23
2019-05-05T00:34:40.080Z,10.27
2019-05-05T00:39:41.865Z,6.67
2019-05-05T00:44:44.674Z,7.57
2019-05-05T00:49:49.473Z,10.50
2019-05-05T00:54:51.255Z,9.07
2019-05-05T00:59:54.392Z,10.17
2019-05-05T01:05:28.105Z,6.37
2019-05-05T01:10:30.497Z,7.80
2019-05-05T01:15:32.195Z,6.30
2019-05-05T01:20:34.416Z,6.40
2019-05-05T01:25:36.185Z,9.73
2019-05-05T01:30:40.210Z,9.17
2019-05-05T01:35:41.991Z,9.53
2019-05-05T01:41:04.131Z,7.17
2019-05-05T01:46:05.730Z,7.30
2019-05-05T01:51:07.413Z,6.90
2019-05-05T01:56:09.941Z,5.93
2019-05-05T02:01:11.741Z,6.37
2019-05-05T02:06:14.259Z,8.20
2019-05-05T02:11:16.108Z,6.70
2019-05-05T02:16:17.881Z,5.00
2019-05-05T02:21:19.657Z,3.87
2019-05-05T02:26:21.365Z,4.07
2019-05-05T02:31:30.018Z,3.83
2019-05-05T02:36:31.729Z,5.20
2019-05-05T02:41:34.799Z,3.83
2019-05-05T02:46:56.113Z,3.30
2019-05-05T02:51:58.256Z,3.13
2019-05-05T02:57:00.879Z,3.93
2019-05-05T03:02:06.606Z,3.10
2019-05-05T03:07:09.623Z,3.73
2019-05-05T03:12:11.621Z,2.80
2019-05-05T03:17:14.364Z,2.60
2019-05-05T03:22:17.209Z,2.93
2019-05-05T03:27:19.905Z,3.30
2019-05-05T03:32:24.842Z,3.73
2019-05-05T03:37:25.325Z,2.83
2019-05-05T03:42:33.853Z,3.83
2019-05-05T03:47:35.731Z,2.53
2019-05-05T03:52:37.526Z,1.50
2019-05-05T03:57:39.357Z,1.70
2019-05-05T04:03:00.648Z,2.53
2019-05-05T04:08:03.944Z,3.53
2019-05-05T04:13:06.326Z,2.23
2019-05-05T04:18:23.868Z,2.03
2019-05-05T04:23:25.549Z,3.20
2019-05-05T04:28:27.325Z,3.33
2019-05-05T04:33:29.101Z,2.23
2019-05-05T04:38:30.881Z,2.57
2019-05-05T04:43:33.836Z,2.10
2019-05-05T04:48:44.797Z,3.63
2019-05-05T04:54:04.502Z,1.47
2019-05-05T04:59:06.246Z,1.60
2019-05-05T05:04:24.330Z,2.90
2019-05-05T05:09:26.207Z,3.77
2019-05-05T05:14:27.982Z,1.60
2019-05-05T05:19:29.741Z,1.33
2019-05-05T05:24:31.514Z,1.53
2019-05-05T05:29:34.513Z,1.87
2019-05-05T05:34:36.398Z,5.23
2019-05-05T05:39:57.664Z,1.20
2019-05-05T05:45:23.680Z,1.00
2019-05-05T05:50:33.810Z,1.20
2019-05-05T05:55:35.473Z,1.00
2019-05-05T06:00:37.317Z,1.00
2019-05-05T06:05:39.030Z,2.80
2019-05-05T06:10:40.738Z,2.20
2019-05-05T06:15:44.164Z,1.10
2019-05-05T06:20:45.981Z,1.40
2019-05-05T06:25:47.687Z,1.50
2019-05-05T06:30:49.390Z,1.40
2019-05-05T06:35:51.175Z,2.20
2019-05-05T06:41:15.130Z,1.67
2019-05-05T06:46:19.769Z,2.07
2019-05-05T06:51:21.473Z,1.80
2019-05-05T06:56:23.803Z,1.50
2019-05-05T07:01:25.653Z,2.60
2019-05-05T07:06:27.369Z,2.60
2019-05-05T07:11:29.105Z,2.17
2019-05-05T07:16:30.881Z,2.83
2019-05-05T07:21:34.248Z,1.70
2019-05-05T07:26:36.089Z,2.53
2019-05-05T07:31:37.849Z,2.43
2019-05-05T07:36:47.942Z,1.57
2019-05-05T07:41:49.707Z,2.43
2019-05-05T07:46:51.419Z,2.00
2019-05-05T07:51:54.700Z,2.57
2019-05-05T07:56:56.690Z,1.30
2019-05-05T08:01:58.442Z,3.43
2019-05-05T08:07:00.163Z,2.40
2019-05-05T08:12:04.207Z,1.70
2019-05-05T08:17:38.955Z,2.50
2019-05-05T08:22:40.462Z,1.90
2019-05-05T08:28:04.472Z,1.60
2019-05-05T08:33:06.237Z,1.70
2019-05-05T08:38:08.024Z,2.70
2019-05-05T08:43:09.805Z,2.67
2019-05-05T08:48:11.513Z,1.70
2019-05-05T08:53:13.855Z,2.53
2019-05-05T08:58:15.750Z,1.80
2019-05-05T09:03:17.522Z,3.23
2019-05-05T09:08:19.299Z,2.93
2019-05-05T09:13:21.096Z,2.70
2019-05-05T09:18:24.569Z,3.07
2019-05-05T09:23:26.373Z,3.37
2019-05-05T09:28:56.772Z,2.23
2019-05-05T09:33:58.492Z,2.33
2019-05-05T09:39:00.398Z,1.43
2019-05-05T09:44:04.189Z,2.97
2019-05-05T09:49:05.646Z,1.80
2019-05-05T09:54:13.988Z,2.73
2019-05-05T09:59:11.058Z,2.00
2019-05-05T10:04:13.929Z,3.93
2019-05-05T10:09:15.738Z,2.40
2019-05-05T10:14:17.521Z,4.10
2019-05-05T10:19:19.295Z,3.60
2019-05-05T10:24:35.126Z,2.97
2019-05-05T10:29:36.825Z,1.87
2019-05-05T10:34:38.539Z,2.90
2019-05-05T10:39:44.776Z,2.10
2019-05-05T10:44:46.530Z,2.17
2019-05-05T10:49:48.273Z,4.00
2019-05-05T10:54:50.061Z,3.27
2019-05-05T10:59:53.459Z,3.30
2019-05-05T11:04:55.492Z,2.93
2019-05-05T11:09:57.509Z,5.23
2019-05-05T11:15:05.524Z,2.70
2019-05-05T11:20:07.751Z,18.13
2019-05-05T11:25:10.155Z,15.07
2019-05-05T11:30:17.020Z,4.67
2019-05-05T11:35:26.957Z,5.33
2019-05-05T11:40:31.924Z,1.93
2019-05-05T11:45:34.442Z,1.97
2019-05-05T11:50:36.337Z,2.67
2019-05-05T11:55:38.089Z,5.27
2019-05-05T12:00:39.985Z,3.17
2019-05-05T12:05:41.705Z,4.00
2019-05-05T12:10:54.196Z,2.00
2019-05-05T12:16:04.552Z,3.43
2019-05-05T12:21:06.649Z,2.40
2019-05-05T12:26:30.591Z,3.07
2019-05-05T12:31:33.972Z,1.97
2019-05-05T12:36:35.949Z,1.90
2019-05-05T12:41:37.732Z,3.57
2019-05-05T12:46:58.970Z,2.77
2019-05-05T12:52:00.810Z,2.00
2019-05-05T12:57:04.436Z,3.73
2019-05-05T13:02:06.871Z,3.03
2019-05-05T13:07:08.597Z,1.47
2019-05-05T13:12:10.396Z,2.23
2019-05-05T13:17:14.048Z,3.90
2019-05-05T13:22:44.446Z,2.00
2019-05-05T13:27:46.158Z,1.70
2019-05-05T13:32:47.908Z,2.27
2019-05-05T13:37:49.703Z,2.40
2019-05-05T13:42:51.475Z,1.70
2019-05-05T13:47:54.106Z,2.77
2019-05-05T13:52:56.048Z,2.67
2019-05-05T13:57:57.819Z,1.53
2019-05-05T14:02:59.749Z,1.90
2019-05-05T14:08:01.486Z,2.20
2019-05-05T14:13:03.765Z,1.57
2019-05-05T14:18:05.827Z,4.37
2019-05-05T14:23:07.635Z,2.43
2019-05-05T14:28:09.388Z,1.73
2019-05-05T14:33:15.938Z,5.47
2019-05-05T14:38:25.413Z,3.10
2019-05-05T14:43:27.285Z,1.67
2019-05-05T14:48:28.987Z,1.50
2019-05-05T14:53:30.787Z,2.93
2019-05-05T14:58:32.558Z,2.43
2019-05-05T15:03:34.333Z,1.47
2019-05-05T15:08:50.313Z,1.97
2019-05-05T15:13:53.983Z,2.70
2019-05-05T15:18:55.609Z,2.33
2019-05-05T15:23:57.415Z,1.83
2019-05-05T15:29:01.731Z,5.13
2019-05-05T15:34:04.158Z,3.87
2019-05-05T15:39:07.237Z,16.53
2019-05-05T15:44:09.017Z,11.00
2019-05-05T15:49:13.277Z,6.47
2019-05-05T15:54:15.235Z,3.07
2019-05-05T15:59:16.929Z,3.40
2019-05-05T16:04:18.713Z,6.43
2019-05-05T16:09:20.428Z,3.73
2019-05-05T16:14:23.844Z,6.43
2019-05-05T16:19:46.181Z,1.27
2019-05-05T16:25:07.541Z,3.83
2019-05-05T16:30:09.367Z,5.87
2019-05-05T16:35:14.473Z,8.33
2019-05-05T16:40:16.350Z,4.27
2019-05-05T16:45:18.191Z,4.57
2019-05-05T16:50:20.029Z,5.00
2019-05-05T16:55:34.363Z,7.50
2019-05-05T17:00:37.338Z,1.70
2019-05-05T17:05:39.133Z,4.13
2019-05-05T17:10:40.834Z,2.43
2019-05-05T17:16:17.633Z,4.37
2019-05-05T17:21:22.383Z,3.43
2019-05-05T17:26:24.367Z,3.03
2019-05-05T17:31:26.189Z,5.90
2019-05-05T17:36:27.965Z,3.70
2019-05-05T17:41:48.101Z,2.43
2019-05-05T17:47:15.532Z,3.13
2019-05-05T17:52:36.722Z,5.47
2019-05-05T17:57:38.535Z,2.73
2019-05-05T18:02:40.353Z,3.63
2019-05-05T18:07:44.148Z,3.60
2019-05-05T18:13:17.349Z,3.30
2019-05-05T18:18:19.137Z,5.03
2019-05-05T18:23:20.913Z,3.23
2019-05-05T18:28:24.566Z,6.27
2019-05-05T18:33:27.689Z,6.63
2019-05-05T18:38:29.519Z,4.77
2019-05-05T18:43:40.747Z,6.63
2019-05-05T18:48:42.529Z,4.27
2019-05-05T18:53:44.219Z,3.63
2019-05-05T18:58:45.909Z,3.07
2019-05-05T19:04:05.966Z,3.57
2019-05-05T19:09:08.928Z,9.60
2019-05-05T19:14:10.754Z,6.27
2019-05-05T19:19:14.299Z,8.83
2019-05-05T19:24:16.161Z,8.20
2019-05-05T19:29:17.905Z,6.30
2019-05-05T19:34:19.670Z,4.93
2019-05-05T19:39:21.445Z,5.50
2019-05-05T19:44:25.849Z,7.80
2019-05-05T19:49:26.869Z,7.47
2019-05-05T19:54:28.625Z,10.57
2019-05-05T19:59:30.391Z,7.83
2019-05-05T20:04:33.740Z,5.47
2019-05-05T20:09:35.709Z,9.33
2019-05-05T20:14:37.470Z,7.07
2019-05-05T20:19:43.956Z,6.33
2019-05-05T20:24:47.349Z,6.53
2019-05-05T20:29:49.153Z,5.93
2019-05-05T20:35:04.071Z,9.50
2019-05-05T20:40:06.737Z,8.43
2019-05-05T20:45:10.364Z,10.47
2019-05-05T20:50:12.221Z,7.77
2019-05-05T20:55:14.189Z,8.33
2019-05-05T21:00:17.293Z,9.83
2019-05-05T21:05:19.115Z,7.53
2019-05-05T21:10:20.914Z,10.97
2019-05-05T21:15:24.493Z,6.90
2019-05-05T21:20:26.194Z,6.27
2019-05-05T21:25:30.894Z,7.10
2019-05-05T21:30:33.683Z,8.28
2019-05-05T21:35:35.697Z,7.97
2019-05-05T21:40:37.417Z,8.37
2019-05-05T21:45:39.246Z,6.93
2019-05-05T21:50:46.203Z,6.90
2019-05-05T21:56:07.411Z,8.00
2019-05-05T22:01:14.915Z,5.47
2019-05-05T22:06:16.793Z,5.53
2019-05-05T22:11:18.549Z,6.13
2019-05-05T22:16:20.333Z,6.43
2019-05-05T22:21:41.105Z,4.70
2019-05-05T22:26:44.600Z,5.60
2019-05-05T22:31:46.461Z,7.63
2019-05-05T22:36:48.205Z,6.40
2019-05-05T22:41:49.989Z,5.90
2019-05-05T22:46:53.657Z,6.20
2019-05-05T22:51:55.287Z,8.23
2019-05-05T22:56:57.078Z,7.10
2019-05-05T23:01:58.943Z,6.67
2019-05-05T23:07:20.214Z,4.40
2019-05-05T23:12:21.955Z,5.47
2019-05-05T23:17:44.145Z,5.17
2019-05-05T23:23:08.442Z,3.53
2019-05-05T23:28:10.186Z,6.47
2019-05-05T23:33:11.876Z,5.30
2019-05-05T23:38:14.341Z,7.43
2019-05-05T23:43:16.331Z,4.83
2019-05-05T23:48:18.107Z,5.60
2019-05-05T23:53:19.798Z,4.27
2019-05-05T23:58:23.856Z,4.00
